sensor_id;sensor_type;location;lat;lon;timestamp;temperature;humidity
27697;DHT22;15105;56.514;21.002;2022-08-21T00:00:30;21.10;99.90
27697;DHT22;15105;56.514;21.002;2022-08-21T00:03:02;21.10;99.90
27697;DHT22;15105;56.514;21.002;2022-08-21T00:05:31;21.10;99.90
27697;DHT22;15105;56.514;21.002;2022-08-21T00:07:59;21.00;99.90
27697;DHT22;15105;56.514;21.002;2022-08-21T00:10:26;21.00;99.90
27697;DHT22;15105;56.514;21.002;2022-08-21T00:12:53;21.00;99.90
27697;DHT22;15105;56.514;21.002;2022-08-21T00:15:26;21.00;99.90
27697;DHT22;15105;56.514;21.002;2022-08-21T00:17:54;21.00;99.90
27697;DHT22;15105;56.514;21.002;2022-08-21T00:20:22;21.00;99.90
27697;DHT22;15105;56.514;21.002;2022-08-21T00:22:50;21.00;99.90
27697;DHT22;15105;56.514;21.002;2022-08-21T00:25:18;21.00;99.90
27697;DHT22;15105;56.514;21.002;2022-08-21T00:27:50;20.90;99.90
27697;DHT22;15105;56.514;21.002;2022-08-21T00:30:19;20.90;99.90
27697;DHT22;15105;56.514;21.002;2022-08-21T00:32:50;20.80;99.90
27697;DHT22;15105;56.514;21.002;2022-08-21T00:35:19;20.70;99.90
27697;DHT22;15105;56.514;21.002;2022-08-21T00:37:46;20.60;99.90
27697;DHT22;15105;56.514;21.002;2022-08-21T00:40:16;20.60;99.90
27697;DHT22;15105;56.514;21.002;2022-08-21T00:42:44;20.60;99.90
27697;DHT22;15105;56.514;21.002;2022-08-21T00:45:20;20.50;99.90
27697;DHT22;15105;56.514;21.002;2022-08-21T00:47:48;20.50;99.90
27697;DHT22;15105;56.514;21.002;2022-08-21T00:50:16;20.50;99.90
27697;DHT22;15105;56.514;21.002;2022-08-21T00:52:49;20.50;99.90
27697;DHT22;15105;56.514;21.002;2022-08-21T00:55:20;20.50;99.90
27697;DHT22;15105;56.514;21.002;2022-08-21T00:57:54;20.40;99.90
27697;DHT22;15105;56.514;21.002;2022-08-21T01:00:28;20.40;99.90
27697;DHT22;15105;56.514;21.002;2022-08-21T01:05:41;20.30;99.90
27697;DHT22;15105;56.514;21.002;2022-08-21T01:08:10;20.30;99.90
27697;DHT22;15105;56.514;21.002;2022-08-21T01:10:38;20.30;99.90
27697;DHT22;15105;56.514;21.002;2022-08-21T01:13:07;20.30;99.90
27697;DHT22;15105;56.514;21.002;2022-08-21T01:15:39;20.30;99.90
27697;DHT22;15105;56.514;21.002;2022-08-21T01:18:09;20.30;99.90
27697;DHT22;15105;56.514;21.002;2022-08-21T01:20:40;20.20;99.90
27697;DHT22;15105;56.514;21.002;2022-08-21T01:23:08;20.30;99.90
27697;DHT22;15105;56.514;21.002;2022-08-21T01:25:36;20.20;99.90
27697;DHT22;15105;56.514;21.002;2022-08-21T01:28:14;20.20;99.90
27697;DHT22;15105;56.514;21.002;2022-08-21T01:30:43;20.20;99.90
27697;DHT22;15105;56.514;21.002;2022-08-21T01:33:13;20.20;99.90
27697;DHT22;15105;56.514;21.002;2022-08-21T01:35:40;20.20;99.90
27697;DHT22;15105;56.514;21.002;2022-08-21T01:38:12;20.20;99.90
27697;DHT22;15105;56.514;21.002;2022-08-21T01:40:39;20.20;99.90
27697;DHT22;15105;56.514;21.002;2022-08-21T01:43:06;20.20;99.90
27697;DHT22;15105;56.514;21.002;2022-08-21T01:45:36;20.10;99.90
27697;DHT22;15105;56.514;21.002;2022-08-21T01:48:04;20.20;99.90
27697;DHT22;15105;56.514;21.002;2022-08-21T01:50:31;20.20;99.90
27697;DHT22;15105;56.514;21.002;2022-08-21T01:52:58;20.20;99.90
27697;DHT22;15105;56.514;21.002;2022-08-21T01:55:25;20.20;99.90
27697;DHT22;15105;56.514;21.002;2022-08-21T01:57:53;20.10;99.90
27697;DHT22;15105;56.514;21.002;2022-08-21T02:00:22;20.10;99.90
27697;DHT22;15105;56.514;21.002;2022-08-21T02:02:50;20.10;99.90
27697;DHT22;15105;56.514;21.002;2022-08-21T02:05:18;20.00;99.90
27697;DHT22;15105;56.514;21.002;2022-08-21T02:07:48;20.00;99.90
27697;DHT22;15105;56.514;21.002;2022-08-21T02:10:26;20.10;99.90
27697;DHT22;15105;56.514;21.002;2022-08-21T02:12:54;20.10;99.90
27697;DHT22;15105;56.514;21.002;2022-08-21T02:15:23;20.00;99.90
27697;DHT22;15105;56.514;21.002;2022-08-21T02:17:56;20.00;99.90
27697;DHT22;15105;56.514;21.002;2022-08-21T02:20:27;20.00;99.90
27697;DHT22;15105;56.514;21.002;2022-08-21T02:22:59;20.00;99.90
27697;DHT22;15105;56.514;21.002;2022-08-21T02:25:28;20.10;99.90
27697;DHT22;15105;56.514;21.002;2022-08-21T02:27:56;20.00;99.90
27697;DHT22;15105;56.514;21.002;2022-08-21T02:30:27;20.00;99.90
27697;DHT22;15105;56.514;21.002;2022-08-21T02:32:54;20.10;99.90
27697;DHT22;15105;56.514;21.002;2022-08-21T02:35:23;20.00;99.90
27697;DHT22;15105;56.514;21.002;2022-08-21T02:37:55;20.00;99.90
27697;DHT22;15105;56.514;21.002;2022-08-21T02:40:26;20.00;99.90
27697;DHT22;15105;56.514;21.002;2022-08-21T02:42:54;20.00;99.90
27697;DHT22;15105;56.514;21.002;2022-08-21T02:45:21;20.00;99.90
27697;DHT22;15105;56.514;21.002;2022-08-21T02:48:01;20.00;99.90
27697;DHT22;15105;56.514;21.002;2022-08-21T02:50:37;20.00;99.90
27697;DHT22;15105;56.514;21.002;2022-08-21T02:53:06;20.00;99.90
27697;DHT22;15105;56.514;21.002;2022-08-21T02:55:37;20.00;99.90
27697;DHT22;15105;56.514;21.002;2022-08-21T02:58:14;20.00;99.90
27697;DHT22;15105;56.514;21.002;2022-08-21T03:00:43;20.10;99.90
27697;DHT22;15105;56.514;21.002;2022-08-21T03:03:28;20.00;99.90
27697;DHT22;15105;56.514;21.002;2022-08-21T03:06:16;20.00;99.90
27697;DHT22;15105;56.514;21.002;2022-08-21T03:09:15;20.00;99.90
27697;DHT22;15105;56.514;21.002;2022-08-21T03:11:43;20.00;99.90
27697;DHT22;15105;56.514;21.002;2022-08-21T03:14:14;20.00;99.90
27697;DHT22;15105;56.514;21.002;2022-08-21T03:16:44;20.00;99.90
27697;DHT22;15105;56.514;21.002;2022-08-21T03:19:28;20.00;99.90
27697;DHT22;15105;56.514;21.002;2022-08-21T03:21:56;20.00;99.90
27697;DHT22;15105;56.514;21.002;2022-08-21T03:24:23;20.00;99.90
27697;DHT22;15105;56.514;21.002;2022-08-21T03:26:51;20.00;99.90
27697;DHT22;15105;56.514;21.002;2022-08-21T03:29:18;19.90;99.90
27697;DHT22;15105;56.514;21.002;2022-08-21T03:31:46;19.90;99.90
27697;DHT22;15105;56.514;21.002;2022-08-21T03:34:14;19.90;99.90
27697;DHT22;15105;56.514;21.002;2022-08-21T03:36:42;20.00;99.90
27697;DHT22;15105;56.514;21.002;2022-08-21T03:39:10;20.00;99.90
27697;DHT22;15105;56.514;21.002;2022-08-21T03:41:38;19.90;99.90
27697;DHT22;15105;56.514;21.002;2022-08-21T03:44:05;20.00;99.90
27697;DHT22;15105;56.514;21.002;2022-08-21T03:46:32;20.00;99.90
27697;DHT22;15105;56.514;21.002;2022-08-21T03:48:59;20.00;99.90
27697;DHT22;15105;56.514;21.002;2022-08-21T03:51:26;20.00;99.90
27697;DHT22;15105;56.514;21.002;2022-08-21T03:53:54;20.00;99.90
27697;DHT22;15105;56.514;21.002;2022-08-21T03:56:21;20.10;99.90
27697;DHT22;15105;56.514;21.002;2022-08-21T03:58:48;20.10;99.90
27697;DHT22;15105;56.514;21.002;2022-08-21T04:01:15;20.10;99.90
27697;DHT22;15105;56.514;21.002;2022-08-21T04:03:42;20.20;99.90
27697;DHT22;15105;56.514;21.002;2022-08-21T04:06:10;20.20;99.90
27697;DHT22;15105;56.514;21.002;2022-08-21T04:08:37;20.20;99.90
27697;DHT22;15105;56.514;21.002;2022-08-21T04:11:05;20.10;99.90
27697;DHT22;15105;56.514;21.002;2022-08-21T04:13:33;20.20;99.90
27697;DHT22;15105;56.514;21.002;2022-08-21T04:16:14;20.20;99.90
27697;DHT22;15105;56.514;21.002;2022-08-21T04:18:41;20.20;99.90
27697;DHT22;15105;56.514;21.002;2022-08-21T04:21:13;20.20;99.90
27697;DHT22;15105;56.514;21.002;2022-08-21T04:23:40;20.20;99.90
27697;DHT22;15105;56.514;21.002;2022-08-21T04:26:07;20.20;99.90
27697;DHT22;15105;56.514;21.002;2022-08-21T04:28:38;20.30;99.90
27697;DHT22;15105;56.514;21.002;2022-08-21T04:31:05;20.30;99.90
27697;DHT22;15105;56.514;21.002;2022-08-21T04:33:33;20.30;99.90
27697;DHT22;15105;56.514;21.002;2022-08-21T04:36:00;20.40;99.90
27697;DHT22;15105;56.514;21.002;2022-08-21T04:38:28;20.40;99.90
27697;DHT22;15105;56.514;21.002;2022-08-21T04:41:03;20.30;99.90
27697;DHT22;15105;56.514;21.002;2022-08-21T04:43:32;20.30;99.90
27697;DHT22;15105;56.514;21.002;2022-08-21T04:46:01;20.30;99.90
27697;DHT22;15105;56.514;21.002;2022-08-21T04:48:28;20.40;99.90
27697;DHT22;15105;56.514;21.002;2022-08-21T04:51:10;20.30;99.90
27697;DHT22;15105;56.514;21.002;2022-08-21T04:56:52;20.40;99.90
27697;DHT22;15105;56.514;21.002;2022-08-21T04:59:24;20.50;99.90
27697;DHT22;15105;56.514;21.002;2022-08-21T05:01:54;20.60;99.90
27697;DHT22;15105;56.514;21.002;2022-08-21T05:04:27;20.70;99.90
27697;DHT22;15105;56.514;21.002;2022-08-21T05:06:57;20.70;99.90
27697;DHT22;15105;56.514;21.002;2022-08-21T05:09:24;20.80;99.90
27697;DHT22;15105;56.514;21.002;2022-08-21T05:11:53;20.90;99.90
27697;DHT22;15105;56.514;21.002;2022-08-21T05:14:21;20.90;99.90
27697;DHT22;15105;56.514;21.002;2022-08-21T05:16:48;20.90;99.90
27697;DHT22;15105;56.514;21.002;2022-08-21T05:19:15;20.90;99.90
27697;DHT22;15105;56.514;21.002;2022-08-21T05:21:44;20.80;99.90
27697;DHT22;15105;56.514;21.002;2022-08-21T05:24:11;20.80;99.90
27697;DHT22;15105;56.514;21.002;2022-08-21T05:26:38;20.70;99.90
27697;DHT22;15105;56.514;21.002;2022-08-21T05:29:12;20.70;99.90
27697;DHT22;15105;56.514;21.002;2022-08-21T05:31:40;20.60;99.90
27697;DHT22;15105;56.514;21.002;2022-08-21T05:34:07;20.70;99.90
27697;DHT22;15105;56.514;21.002;2022-08-21T05:36:36;20.70;99.90
27697;DHT22;15105;56.514;21.002;2022-08-21T05:39:04;20.70;99.90
27697;DHT22;15105;56.514;21.002;2022-08-21T05:41:31;20.70;99.90
27697;DHT22;15105;56.514;21.002;2022-08-21T05:43:59;20.70;99.90
27697;DHT22;15105;56.514;21.002;2022-08-21T05:46:26;20.80;99.90
27697;DHT22;15105;56.514;21.002;2022-08-21T05:48:53;20.80;99.90
27697;DHT22;15105;56.514;21.002;2022-08-21T05:51:20;20.80;99.90
27697;DHT22;15105;56.514;21.002;2022-08-21T05:53:48;20.90;99.90
27697;DHT22;15105;56.514;21.002;2022-08-21T05:56:15;20.90;99.90
27697;DHT22;15105;56.514;21.002;2022-08-21T05:58:42;20.90;99.90
27697;DHT22;15105;56.514;21.002;2022-08-21T06:01:10;20.90;99.90
27697;DHT22;15105;56.514;21.002;2022-08-21T06:03:39;20.90;99.90
27697;DHT22;15105;56.514;21.002;2022-08-21T06:06:07;21.00;99.90
27697;DHT22;15105;56.514;21.002;2022-08-21T06:08:41;21.00;99.90
27697;DHT22;15105;56.514;21.002;2022-08-21T06:11:12;21.10;99.90
27697;DHT22;15105;56.514;21.002;2022-08-21T06:13:38;21.20;99.90
27697;DHT22;15105;56.514;21.002;2022-08-21T06:16:14;21.30;99.90
27697;DHT22;15105;56.514;21.002;2022-08-21T06:18:43;21.30;99.90
27697;DHT22;15105;56.514;21.002;2022-08-21T06:21:11;21.40;99.90
27697;DHT22;15105;56.514;21.002;2022-08-21T06:23:40;21.40;99.90
27697;DHT22;15105;56.514;21.002;2022-08-21T06:26:12;21.50;99.90
27697;DHT22;15105;56.514;21.002;2022-08-21T06:28:41;21.50;99.90
27697;DHT22;15105;56.514;21.002;2022-08-21T06:31:20;21.60;99.90
27697;DHT22;15105;56.514;21.002;2022-08-21T06:33:48;21.60;99.90
27697;DHT22;15105;56.514;21.002;2022-08-21T06:36:15;21.70;99.90
27697;DHT22;15105;56.514;21.002;2022-08-21T06:38:43;21.70;99.90
27697;DHT22;15105;56.514;21.002;2022-08-21T06:41:17;21.80;99.90
27697;DHT22;15105;56.514;21.002;2022-08-21T06:43:52;21.80;99.90
27697;DHT22;15105;56.514;21.002;2022-08-21T06:46:19;21.90;99.90
27697;DHT22;15105;56.514;21.002;2022-08-21T06:48:47;21.80;99.90
27697;DHT22;15105;56.514;21.002;2022-08-21T06:51:14;21.80;99.90
27697;DHT22;15105;56.514;21.002;2022-08-21T06:53:41;21.80;99.90
27697;DHT22;15105;56.514;21.002;2022-08-21T06:56:09;21.70;99.90
27697;DHT22;15105;56.514;21.002;2022-08-21T06:58:36;21.70;99.90
27697;DHT22;15105;56.514;21.002;2022-08-21T07:01:04;21.70;99.90
27697;DHT22;15105;56.514;21.002;2022-08-21T07:03:39;21.70;99.90
27697;DHT22;15105;56.514;21.002;2022-08-21T07:06:09;21.70;99.90
27697;DHT22;15105;56.514;21.002;2022-08-21T07:08:37;21.70;99.90
27697;DHT22;15105;56.514;21.002;2022-08-21T07:11:11;21.70;99.90
27697;DHT22;15105;56.514;21.002;2022-08-21T07:13:39;21.60;99.90
27697;DHT22;15105;56.514;21.002;2022-08-21T07:16:06;21.50;99.90
27697;DHT22;15105;56.514;21.002;2022-08-21T07:18:41;21.40;99.90
27697;DHT22;15105;56.514;21.002;2022-08-21T07:21:28;21.40;99.90
27697;DHT22;15105;56.514;21.002;2022-08-21T07:23:55;21.40;99.90
27697;DHT22;15105;56.514;21.002;2022-08-21T07:26:23;21.50;99.90
27697;DHT22;15105;56.514;21.002;2022-08-21T07:28:51;21.50;99.90
27697;DHT22;15105;56.514;21.002;2022-08-21T07:31:21;21.50;99.90
27697;DHT22;15105;56.514;21.002;2022-08-21T07:33:49;21.50;99.90
27697;DHT22;15105;56.514;21.002;2022-08-21T07:36:16;21.60;99.90
27697;DHT22;15105;56.514;21.002;2022-08-21T07:38:44;21.60;99.90
27697;DHT22;15105;56.514;21.002;2022-08-21T07:41:16;21.60;99.90
27697;DHT22;15105;56.514;21.002;2022-08-21T07:43:44;21.70;99.90
27697;DHT22;15105;56.514;21.002;2022-08-21T07:46:13;21.80;99.90
27697;DHT22;15105;56.514;21.002;2022-08-21T07:48:40;21.80;99.90
27697;DHT22;15105;56.514;21.002;2022-08-21T07:51:10;21.80;99.90
27697;DHT22;15105;56.514;21.002;2022-08-21T07:53:38;21.80;99.90
27697;DHT22;15105;56.514;21.002;2022-08-21T07:56:06;21.70;99.90
27697;DHT22;15105;56.514;21.002;2022-08-21T07:58:33;21.80;99.90
27697;DHT22;15105;56.514;21.002;2022-08-21T08:01:00;21.70;99.90
27697;DHT22;15105;56.514;21.002;2022-08-21T08:03:27;21.70;99.90
27697;DHT22;15105;56.514;21.002;2022-08-21T08:05:56;21.70;99.90
27697;DHT22;15105;56.514;21.002;2022-08-21T08:08:23;21.70;99.90
27697;DHT22;15105;56.514;21.002;2022-08-21T08:10:51;21.80;99.90
27697;DHT22;15105;56.514;21.002;2022-08-21T08:13:18;21.90;99.90
27697;DHT22;15105;56.514;21.002;2022-08-21T08:15:45;21.90;99.90
27697;DHT22;15105;56.514;21.002;2022-08-21T08:18:12;22.00;99.90
27697;DHT22;15105;56.514;21.002;2022-08-21T08:20:40;22.00;99.90
27697;DHT22;15105;56.514;21.002;2022-08-21T08:23:10;22.00;99.90
27697;DHT22;15105;56.514;21.002;2022-08-21T08:25:38;22.00;99.90
27697;DHT22;15105;56.514;21.002;2022-08-21T08:28:06;22.10;99.90
27697;DHT22;15105;56.514;21.002;2022-08-21T08:30:53;22.10;99.90
27697;DHT22;15105;56.514;21.002;2022-08-21T08:33:20;22.10;99.90
27697;DHT22;15105;56.514;21.002;2022-08-21T08:35:49;22.20;99.90
27697;DHT22;15105;56.514;21.002;2022-08-21T08:38:19;22.10;99.90
27697;DHT22;15105;56.514;21.002;2022-08-21T08:41:05;22.10;99.90
27697;DHT22;15105;56.514;21.002;2022-08-21T08:43:34;22.10;99.90
27697;DHT22;15105;56.514;21.002;2022-08-21T08:46:04;22.10;99.90
27697;DHT22;15105;56.514;21.002;2022-08-21T08:48:45;22.00;99.90
27697;DHT22;15105;56.514;21.002;2022-08-21T08:51:42;22.10;99.90
27697;DHT22;15105;56.514;21.002;2022-08-21T08:54:19;22.10;99.90
27697;DHT22;15105;56.514;21.002;2022-08-21T08:56:48;22.10;99.90
27697;DHT22;15105;56.514;21.002;2022-08-21T08:59:26;22.20;99.90
27697;DHT22;15105;56.514;21.002;2022-08-21T09:01:55;22.20;99.90
27697;DHT22;15105;56.514;21.002;2022-08-21T09:04:25;22.20;99.90
27697;DHT22;15105;56.514;21.002;2022-08-21T09:06:57;22.20;99.90
27697;DHT22;15105;56.514;21.002;2022-08-21T09:09:31;22.10;99.90
27697;DHT22;15105;56.514;21.002;2022-08-21T09:15:07;22.10;99.90
27697;DHT22;15105;56.514;21.002;2022-08-21T09:20:47;22.20;99.90
27697;DHT22;15105;56.514;21.002;2022-08-21T09:28:20;22.40;99.90
27697;DHT22;15105;56.514;21.002;2022-08-21T09:30:48;22.30;99.90
27697;DHT22;15105;56.514;21.002;2022-08-21T09:33:16;22.40;99.90
27697;DHT22;15105;56.514;21.002;2022-08-21T09:35:55;22.50;99.90
27697;DHT22;15105;56.514;21.002;2022-08-21T09:38:34;22.50;99.90
27697;DHT22;15105;56.514;21.002;2022-08-21T09:41:05;22.60;99.90
27697;DHT22;15105;56.514;21.002;2022-08-21T09:43:35;22.60;99.90
27697;DHT22;15105;56.514;21.002;2022-08-21T09:46:09;22.60;99.90
27697;DHT22;15105;56.514;21.002;2022-08-21T09:48:46;22.60;99.90
27697;DHT22;15105;56.514;21.002;2022-08-21T09:51:26;22.60;99.90
27697;DHT22;15105;56.514;21.002;2022-08-21T09:56:39;22.30;99.90
27697;DHT22;15105;56.514;21.002;2022-08-21T09:59:31;22.40;99.90
27697;DHT22;15105;56.514;21.002;2022-08-21T10:07:30;22.70;99.90
27697;DHT22;15105;56.514;21.002;2022-08-21T10:10:26;23.10;99.90
27697;DHT22;15105;56.514;21.002;2022-08-21T10:15:35;24.10;99.90
27697;DHT22;15105;56.514;21.002;2022-08-21T10:24:19;24.50;99.90
27697;DHT22;15105;56.514;21.002;2022-08-21T10:27:32;24.50;99.90
27697;DHT22;15105;56.514;21.002;2022-08-21T10:36:13;24.80;99.90
27697;DHT22;15105;56.514;21.002;2022-08-21T10:38:50;24.80;99.90
27697;DHT22;15105;56.514;21.002;2022-08-21T10:44:25;24.50;99.90
27697;DHT22;15105;56.514;21.002;2022-08-21T10:47:10;24.50;99.90
27697;DHT22;15105;56.514;21.002;2022-08-21T10:49:42;24.50;99.90
27697;DHT22;15105;56.514;21.002;2022-08-21T10:52:42;24.50;99.90
27697;DHT22;15105;56.514;21.002;2022-08-21T10:55:17;24.50;99.90
27697;DHT22;15105;56.514;21.002;2022-08-21T10:58:04;24.50;99.90
27697;DHT22;15105;56.514;21.002;2022-08-21T11:00:51;24.40;99.90
27697;DHT22;15105;56.514;21.002;2022-08-21T11:06:09;24.40;99.90
27697;DHT22;15105;56.514;21.002;2022-08-21T11:08:41;24.30;99.90
27697;DHT22;15105;56.514;21.002;2022-08-21T11:11:35;24.20;99.90
27697;DHT22;15105;56.514;21.002;2022-08-21T11:14:24;24.10;99.90
27697;DHT22;15105;56.514;21.002;2022-08-21T11:17:07;24.00;99.90
27697;DHT22;15105;56.514;21.002;2022-08-21T11:19:59;24.00;99.90
27697;DHT22;15105;56.514;21.002;2022-08-21T11:22:40;24.00;99.90
27697;DHT22;15105;56.514;21.002;2022-08-21T11:30:52;24.60;99.90
27697;DHT22;15105;56.514;21.002;2022-08-21T11:36:05;24.30;99.90
27697;DHT22;15105;56.514;21.002;2022-08-21T11:38:42;24.30;99.90
27697;DHT22;15105;56.514;21.002;2022-08-21T11:43:47;24.20;99.90
27697;DHT22;15105;56.514;21.002;2022-08-21T11:49:29;24.10;99.90
27697;DHT22;15105;56.514;21.002;2022-08-21T11:52:11;24.10;99.90
27697;DHT22;15105;56.514;21.002;2022-08-21T11:57:56;24.00;99.90
27697;DHT22;15105;56.514;21.002;2022-08-21T12:00:32;23.90;99.90
27697;DHT22;15105;56.514;21.002;2022-08-21T12:03:15;23.80;99.90
27697;DHT22;15105;56.514;21.002;2022-08-21T12:05:54;23.70;99.90
27697;DHT22;15105;56.514;21.002;2022-08-21T12:08:31;23.70;99.90
27697;DHT22;15105;56.514;21.002;2022-08-21T12:16:34;23.80;99.90
27697;DHT22;15105;56.514;21.002;2022-08-21T12:21:47;23.90;99.90
27697;DHT22;15105;56.514;21.002;2022-08-21T12:24:16;23.90;99.90
27697;DHT22;15105;56.514;21.002;2022-08-21T12:26:50;23.90;99.90
27697;DHT22;15105;56.514;21.002;2022-08-21T12:34:57;23.70;99.90
27697;DHT22;15105;56.514;21.002;2022-08-21T12:37:44;23.70;99.90
27697;DHT22;15105;56.514;21.002;2022-08-21T12:40:28;23.60;99.90
27697;DHT22;15105;56.514;21.002;2022-08-21T12:42:59;23.60;99.90
27697;DHT22;15105;56.514;21.002;2022-08-21T12:45:31;23.60;99.90
27697;DHT22;15105;56.514;21.002;2022-08-21T12:48:20;23.50;99.90
27697;DHT22;15105;56.514;21.002;2022-08-21T12:50:53;23.40;99.90
27697;DHT22;15105;56.514;21.002;2022-08-21T12:56:02;23.30;99.90
27697;DHT22;15105;56.514;21.002;2022-08-21T12:58:31;23.30;99.90
27697;DHT22;15105;56.514;21.002;2022-08-21T13:01:06;23.30;99.90
27697;DHT22;15105;56.514;21.002;2022-08-21T13:03:37;23.30;99.90
27697;DHT22;15105;56.514;21.002;2022-08-21T13:06:05;23.30;99.90
27697;DHT22;15105;56.514;21.002;2022-08-21T13:08:35;23.30;99.90
27697;DHT22;15105;56.514;21.002;2022-08-21T13:11:09;23.40;99.90
27697;DHT22;15105;56.514;21.002;2022-08-21T13:13:42;23.40;99.90
27697;DHT22;15105;56.514;21.002;2022-08-21T13:16:24;23.50;99.90
27697;DHT22;15105;56.514;21.002;2022-08-21T13:19:01;23.60;99.90
27697;DHT22;15105;56.514;21.002;2022-08-21T13:21:40;23.50;99.90
27697;DHT22;15105;56.514;21.002;2022-08-21T13:24:26;23.60;99.90
27697;DHT22;15105;56.514;21.002;2022-08-21T13:27:22;23.60;99.90
27697;DHT22;15105;56.514;21.002;2022-08-21T13:30:11;23.70;99.90
27697;DHT22;15105;56.514;21.002;2022-08-21T13:32:44;23.70;99.90
27697;DHT22;15105;56.514;21.002;2022-08-21T13:35:34;23.70;99.90
27697;DHT22;15105;56.514;21.002;2022-08-21T13:38:04;23.70;99.90
27697;DHT22;15105;56.514;21.002;2022-08-21T13:40:44;23.70;99.90
27697;DHT22;15105;56.514;21.002;2022-08-21T13:43:15;23.70;99.90
27697;DHT22;15105;56.514;21.002;2022-08-21T13:45:52;23.70;99.90
27697;DHT22;15105;56.514;21.002;2022-08-21T13:48:20;23.60;99.90
27697;DHT22;15105;56.514;21.002;2022-08-21T13:50:48;23.50;99.90
27697;DHT22;15105;56.514;21.002;2022-08-21T13:53:34;23.40;99.90
27697;DHT22;15105;56.514;21.002;2022-08-21T13:56:02;23.30;99.90
27697;DHT22;15105;56.514;21.002;2022-08-21T13:58:43;23.30;99.90
27697;DHT22;15105;56.514;21.002;2022-08-21T14:01:30;23.30;99.90
27697;DHT22;15105;56.514;21.002;2022-08-21T14:04:04;23.30;99.90
27697;DHT22;15105;56.514;21.002;2022-08-21T14:06:38;23.30;99.90
27697;DHT22;15105;56.514;21.002;2022-08-21T14:09:40;23.20;99.90
27697;DHT22;15105;56.514;21.002;2022-08-21T14:12:25;23.20;99.90
27697;DHT22;15105;56.514;21.002;2022-08-21T14:14:55;23.10;99.90
27697;DHT22;15105;56.514;21.002;2022-08-21T14:17:34;23.00;99.90
27697;DHT22;15105;56.514;21.002;2022-08-21T14:20:05;23.00;99.90
27697;DHT22;15105;56.514;21.002;2022-08-21T14:22:46;22.90;99.90
27697;DHT22;15105;56.514;21.002;2022-08-21T14:25:40;22.70;99.90
27697;DHT22;15105;56.514;21.002;2022-08-21T14:28:30;22.60;99.90
27697;DHT22;15105;56.514;21.002;2022-08-21T14:31:15;22.40;99.90
27697;DHT22;15105;56.514;21.002;2022-08-21T14:33:43;22.30;99.90
27697;DHT22;15105;56.514;21.002;2022-08-21T14:36:10;22.20;99.90
27697;DHT22;15105;56.514;21.002;2022-08-21T14:38:39;22.20;99.90
27697;DHT22;15105;56.514;21.002;2022-08-21T14:41:15;22.20;99.90
27697;DHT22;15105;56.514;21.002;2022-08-21T14:43:45;22.20;99.90
27697;DHT22;15105;56.514;21.002;2022-08-21T14:46:25;22.10;99.90
27697;DHT22;15105;56.514;21.002;2022-08-21T14:48:53;21.90;99.90
27697;DHT22;15105;56.514;21.002;2022-08-21T14:51:21;21.90;99.90
27697;DHT22;15105;56.514;21.002;2022-08-21T14:53:49;21.80;99.90
27697;DHT22;15105;56.514;21.002;2022-08-21T14:56:18;21.80;99.90
27697;DHT22;15105;56.514;21.002;2022-08-21T14:58:47;21.70;99.90
27697;DHT22;15105;56.514;21.002;2022-08-21T15:01:17;21.70;99.90
27697;DHT22;15105;56.514;21.002;2022-08-21T15:03:45;21.70;99.90
27697;DHT22;15105;56.514;21.002;2022-08-21T15:06:14;21.70;99.90
27697;DHT22;15105;56.514;21.002;2022-08-21T15:08:42;21.80;99.90
27697;DHT22;15105;56.514;21.002;2022-08-21T15:11:22;21.80;99.90
27697;DHT22;15105;56.514;21.002;2022-08-21T15:14:29;21.80;99.90
27697;DHT22;15105;56.514;21.002;2022-08-21T15:16:57;21.80;99.90
27697;DHT22;15105;56.514;21.002;2022-08-21T15:22:10;21.80;99.90
27697;DHT22;15105;56.514;21.002;2022-08-21T15:24:45;21.90;99.90
27697;DHT22;15105;56.514;21.002;2022-08-21T15:27:16;21.90;99.90
27697;DHT22;15105;56.514;21.002;2022-08-21T15:29:45;21.90;99.90
27697;DHT22;15105;56.514;21.002;2022-08-21T15:32:22;22.00;99.90
27697;DHT22;15105;56.514;21.002;2022-08-21T15:34:51;21.90;99.90
27697;DHT22;15105;56.514;21.002;2022-08-21T15:37:18;21.90;99.90
27697;DHT22;15105;56.514;21.002;2022-08-21T15:39:46;21.90;99.90
27697;DHT22;15105;56.514;21.002;2022-08-21T15:42:20;21.90;99.90
27697;DHT22;15105;56.514;21.002;2022-08-21T15:44:48;21.90;99.90
27697;DHT22;15105;56.514;21.002;2022-08-21T15:47:21;22.00;99.90
27697;DHT22;15105;56.514;21.002;2022-08-21T15:49:49;21.90;99.90
27697;DHT22;15105;56.514;21.002;2022-08-21T15:52:18;21.90;99.90
27697;DHT22;15105;56.514;21.002;2022-08-21T15:54:46;22.00;99.90
27697;DHT22;15105;56.514;21.002;2022-08-21T15:57:17;22.00;99.90
27697;DHT22;15105;56.514;21.002;2022-08-21T15:59:48;22.00;99.90
27697;DHT22;15105;56.514;21.002;2022-08-21T16:02:22;22.00;99.90
27697;DHT22;15105;56.514;21.002;2022-08-21T16:04:50;22.00;99.90
27697;DHT22;15105;56.514;21.002;2022-08-21T16:07:18;22.00;99.90
27697;DHT22;15105;56.514;21.002;2022-08-21T16:09:46;22.00;99.90
27697;DHT22;15105;56.514;21.002;2022-08-21T16:12:28;22.00;99.90
27697;DHT22;15105;56.514;21.002;2022-08-21T16:15:00;22.00;99.90
27697;DHT22;15105;56.514;21.002;2022-08-21T16:17:31;21.90;99.90
27697;DHT22;15105;56.514;21.002;2022-08-21T16:20:00;21.80;99.90
27697;DHT22;15105;56.514;21.002;2022-08-21T16:22:28;21.70;99.90
27697;DHT22;15105;56.514;21.002;2022-08-21T16:25:13;21.60;99.90
27697;DHT22;15105;56.514;21.002;2022-08-21T16:27:43;21.50;99.90
27697;DHT22;15105;56.514;21.002;2022-08-21T16:30:12;21.40;99.90
27697;DHT22;15105;56.514;21.002;2022-08-21T16:32:42;21.40;99.90
27697;DHT22;15105;56.514;21.002;2022-08-21T16:35:13;21.40;99.90
27697;DHT22;15105;56.514;21.002;2022-08-21T16:37:41;21.40;99.90
27697;DHT22;15105;56.514;21.002;2022-08-21T16:40:09;21.40;99.90
27697;DHT22;15105;56.514;21.002;2022-08-21T16:42:40;21.40;99.90
27697;DHT22;15105;56.514;21.002;2022-08-21T16:45:28;21.40;99.90
27697;DHT22;15105;56.514;21.002;2022-08-21T16:47:59;21.30;99.90
27697;DHT22;15105;56.514;21.002;2022-08-21T16:50:27;21.20;99.90
27697;DHT22;15105;56.514;21.002;2022-08-21T16:52:55;21.20;99.90
27697;DHT22;15105;56.514;21.002;2022-08-21T16:55:22;21.10;99.90
27697;DHT22;15105;56.514;21.002;2022-08-21T16:57:50;21.00;99.90
27697;DHT22;15105;56.514;21.002;2022-08-21T17:00:20;21.00;99.90
27697;DHT22;15105;56.514;21.002;2022-08-21T17:02:50;21.00;99.90
27697;DHT22;15105;56.514;21.002;2022-08-21T17:05:20;21.00;99.90
27697;DHT22;15105;56.514;21.002;2022-08-21T17:07:48;21.00;99.90